Time;durP1;ratioP1;P1;durP2;ratioP2;P2;SDS_P1;SDS_P2;PMS_P1;PMS_P2;Temp;Humidity;BMP_temperature;BMP_pressure;BME280_temperature;BME280_humidity;BME280_pressure;Samples;Min_cycle;Max_cycle;Signal;HPM_P1;HPM_P2
2021/12/20 00:01:20;;;;;;;87.72;42.63;;;;;;;-3.27;100.00;97964.31;5109503;28;20020;-76
2021/12/20 00:03:46;;;;;;;101.43;45.08;;;;;;;-3.20;100.00;97971.50;5111475;28;20024;-77
2021/12/20 00:06:11;;;;;;;104.53;51.42;;;;;;;-3.19;100.00;97970.44;5113748;28;20058;-76
2021/12/20 00:08:37;;;;;;;106.03;49.40;;;;;;;-3.27;100.00;97961.63;5115112;28;21000;-77
2021/12/20 00:11:04;;;;;;;115.90;53.92;;;;;;;-3.33;100.00;97957.13;5113794;28;20028;-75
2021/12/20 00:13:29;;;;;;;129.98;57.35;;;;;;;-3.39;100.00;97957.13;5114970;28;20027;-76
2021/12/20 00:15:55;;;;;;;128.82;51.13;;;;;;;-3.49;100.00;97957.53;5112990;28;20035;-79
2021/12/20 00:18:21;;;;;;;159.55;55.50;;;;;;;-3.48;100.00;97953.03;5117083;28;20024;-76
2021/12/20 00:20:46;;;;;;;118.97;54.50;;;;;;;-3.43;100.00;97956.72;5117294;28;20480;-75
2021/12/20 00:23:12;;;;;;;120.30;55.95;;;;;;;-3.45;100.00;97956.09;5115994;28;20024;-75
2021/12/20 00:25:38;;;;;;;120.47;55.38;;;;;;;-3.34;100.00;97966.16;5113722;28;20024;-74
2021/12/20 00:28:03;;;;;;;115.65;54.00;;;;;;;-3.44;100.00;97960.41;5114502;28;20019;-74
2021/12/20 00:30:29;;;;;;;111.55;55.20;;;;;;;-3.35;100.00;97951.16;5114394;28;20138;-75
2021/12/20 00:32:55;;;;;;;115.85;55.25;;;;;;;-3.43;100.00;97962.06;5114117;28;20039;-75
2021/12/20 00:35:24;;;;;;;114.80;54.88;;;;;;;-3.40;100.00;97950.94;5113993;28;20023;-76
2021/12/20 00:40:34;;;;;;;103.65;53.70;;;;;;;-3.34;100.00;97955.47;5114404;28;20130;-74
2021/12/20 00:43:01;;;;;;;113.88;59.75;;;;;;;-3.30;100.00;97948.69;5113965;27;20110;-77
2021/12/20 00:45:35;;;;;;;111.20;59.22;;;;;;;-3.42;100.00;97953.03;5113918;28;20024;-76
2021/12/20 00:48:02;;;;;;;120.45;60.95;;;;;;;-3.47;100.00;97955.47;5113664;28;20194;-75
2021/12/20 00:50:29;;;;;;;118.07;59.38;;;;;;;-3.34;100.00;97962.66;5113807;28;20544;-76
2021/12/20 00:52:54;;;;;;;122.85;62.70;;;;;;;-3.40;100.00;97972.34;5113005;28;20047;-74
2021/12/20 00:55:22;;;;;;;127.43;64.05;;;;;;;-3.39;100.00;97979.34;5114029;28;20542;-75
2021/12/20 00:57:50;;;;;;;122.20;61.63;;;;;;;-3.40;100.00;97975.00;5112751;28;20023;-75
2021/12/20 01:00:20;;;;;;;119.75;60.45;;;;;;;-3.36;100.00;97986.94;5114126;27;20028;-72
2021/12/20 01:02:46;;;;;;;117.70;58.30;;;;;;;-3.30;100.00;97990.63;5113440;28;20031;-75
2021/12/20 01:05:12;;;;;;;113.80;57.92;;;;;;;-3.23;100.00;97988.78;5112145;28;20023;-76
2021/12/20 01:07:37;;;;;;;103.00;56.15;;;;;;;-3.27;100.00;98001.75;5113348;28;20028;-75
2021/12/20 01:10:07;;;;;;;96.65;49.47;;;;;;;-3.30;100.00;97994.13;5112128;28;20044;-76
2021/12/20 01:12:42;;;;;;;93.35;47.30;;;;;;;-3.33;100.00;97983.84;5123463;27;20032;-75
2021/12/20 01:15:16;;;;;;;88.68;45.10;;;;;;;-3.38;100.00;97970.28;5114538;28;20079;-76
2021/12/20 01:17:41;;;;;;;85.43;44.83;;;;;;;-3.45;100.00;97974.81;5113464;28;20084;-74
2021/12/20 01:20:08;;;;;;;91.57;45.83;;;;;;;-3.51;100.00;97980.97;5113435;28;20028;-74
2021/12/20 01:22:34;;;;;;;85.95;43.75;;;;;;;-3.53;100.00;97975.00;5112248;28;20024;-76
2021/12/20 01:24:59;;;;;;;103.03;43.42;;;;;;;-3.60;100.00;97976.84;5112532;28;20110;-75
2021/12/20 01:27:25;;;;;;;92.78;42.03;;;;;;;-3.65;100.00;97979.31;5112960;28;20024;-75
2021/12/20 01:29:50;;;;;;;129.85;41.78;;;;;;;-3.65;100.00;97989.19;5112880;28;20429;-75
2021/12/20 01:32:16;;;;;;;88.90;40.83;;;;;;;-3.73;100.00;97995.56;5112836;28;20105;-75
2021/12/20 01:34:41;;;;;;;106.45;45.08;;;;;;;-3.74;100.00;97996.59;5112962;28;20385;-76
2021/12/20 01:37:07;;;;;;;115.90;45.47;;;;;;;-3.77;100.00;98005.00;5112776;28;20027;-75
2021/12/20 01:39:32;;;;;;;85.88;43.30;;;;;;;-3.74;100.00;98001.09;5112774;28;20023;-77
2021/12/20 01:41:59;;;;;;;92.28;42.83;;;;;;;-3.75;100.00;98000.28;5113013;28;20106;-75
2021/12/20 01:44:25;;;;;;;78.97;39.53;;;;;;;-3.78;100.00;97995.34;5112496;28;20046;-76
2021/12/20 01:46:50;;;;;;;86.90;41.38;;;;;;;-3.77;100.00;98005.00;5112492;28;20457;-75
2021/12/20 01:49:17;;;;;;;87.93;42.50;;;;;;;-3.89;100.00;98006.63;5112587;28;20030;-75
2021/12/20 01:52:01;;;;;;;85.57;41.35;;;;;;;-3.89;100.00;98003.97;5111620;28;20032;-74
2021/12/20 01:54:26;;;;;;;90.85;42.67;;;;;;;-3.99;100.00;97998.19;5112491;28;20032;-74
2021/12/20 01:56:52;;;;;;;92.20;42.50;;;;;;;-4.08;100.00;98005.56;5112781;28;20024;-76
2021/12/20 01:59:17;;;;;;;83.05;41.95;;;;;;;-4.13;100.00;98001.84;5113376;28;20463;-75
2021/12/20 02:01:45;;;;;;;85.18;39.45;;;;;;;-4.07;100.00;98006.41;5114339;28;20440;-76
2021/12/20 02:04:11;;;;;;;85.90;39.58;;;;;;;-4.09;100.00;98003.09;5112004;28;20016;-76
2021/12/20 02:06:44;;;;;;;80.95;36.50;;;;;;;-4.07;100.00;97991.16;5112413;28;20111;-75
2021/12/20 02:09:14;;;;;;;81.40;37.15;;;;;;;-4.17;100.00;97988.09;5114242;28;20106;-75
2021/12/20 02:11:42;;;;;;;77.90;35.95;;;;;;;-4.12;100.00;98003.50;5112494;28;20031;-75
2021/12/20 02:14:09;;;;;;;91.70;35.35;;;;;;;-4.19;100.00;98005.31;5111926;28;20035;-76
2021/12/20 02:16:34;;;;;;;69.50;33.42;;;;;;;-4.21;100.00;98010.88;5112133;28;20056;-76
2021/12/20 02:19:08;;;;;;;99.90;35.30;;;;;;;-4.20;100.00;98011.69;5112110;28;20039;-75
2021/12/20 02:21:34;;;;;;;79.63;32.65;;;;;;;-4.21;100.00;98002.03;5112619;28;20434;-78
2021/12/20 02:23:59;;;;;;;78.28;34.58;;;;;;;-4.32;100.00;98001.56;5114091;28;20031;-75
2021/12/20 02:26:26;;;;;;;78.00;34.55;;;;;;;-4.36;100.00;97997.69;5112090;28;20034;-76
2021/12/20 02:28:54;;;;;;;88.93;33.13;;;;;;;-4.30;100.00;98000.56;5112191;28;20045;-76
2021/12/20 02:39:20;;;;;;;76.38;34.55;;;;;;;-4.29;100.00;98007.56;5096240;28;20067;-75
2021/12/20 02:41:46;;;;;;;77.47;36.15;;;;;;;-4.30;100.00;97998.72;5089637;28;20020;-75
2021/12/20 02:44:19;;;;;;;74.97;32.35;;;;;;;-4.24;100.00;98007.78;5102499;28;20042;-75
2021/12/20 02:49:23;;;;;;;72.75;33.25;;;;;;;-4.16;100.00;98002.22;5091156;28;20492;-75
2021/12/20 02:51:52;;;;;;;76.25;35.00;;;;;;;-4.13;100.00;98001.84;5091468;28;20525;-75
2021/12/20 02:54:22;;;;;;;68.85;35.08;;;;;;;-4.10;100.00;98001.47;5090434;28;20052;-75
2021/12/20 02:56:48;;;;;;;75.50;37.55;;;;;;;-4.19;100.00;98024.00;5089533;28;20035;-76
2021/12/20 02:59:15;;;;;;;71.47;35.83;;;;;;;-4.21;100.00;98012.72;5091061;28;20024;-76
2021/12/20 03:01:48;;;;;;;77.18;37.05;;;;;;;-4.32;100.00;97998.91;5103334;28;20024;-75
2021/12/20 03:04:14;;;;;;;85.07;39.03;;;;;;;-4.26;100.00;98013.28;5113539;28;20020;-76
2021/12/20 03:06:53;;;;;;;73.85;35.85;;;;;;;-4.29;100.00;98018.22;5118318;28;20027;-75
2021/12/20 03:09:21;;;;;;;74.47;38.97;;;;;;;-4.26;100.00;98031.97;5116564;28;20039;-75
2021/12/20 03:11:51;;;;;;;100.13;46.70;;;;;;;-4.25;100.00;98032.81;5111326;28;20034;-74
2021/12/20 03:14:24;;;;;;;94.47;40.47;;;;;;;-4.32;100.00;98024.78;5110758;28;20039;-76
2021/12/20 03:16:50;;;;;;;88.75;41.42;;;;;;;-4.30;100.00;98016.56;5111179;28;20435;-74
2021/12/20 03:19:15;;;;;;;82.90;41.67;;;;;;;-4.31;100.00;98021.09;5110929;28;20024;-75
2021/12/20 03:21:40;;;;;;;79.78;41.63;;;;;;;-4.28;100.00;98011.84;5111270;28;20499;-76
2021/12/20 03:24:06;;;;;;;77.97;39.20;;;;;;;-4.26;100.00;98017.84;5111127;28;20067;-74
2021/12/20 03:26:33;;;;;;;76.78;40.17;;;;;;;-4.21;100.00;98023.38;5111032;28;20038;-77
2021/12/20 03:28:58;;;;;;;72.18;38.38;;;;;;;-4.24;100.00;98021.13;5110817;28;20434;-76
2021/12/20 03:31:24;;;;;;;72.25;37.60;;;;;;;-4.23;100.00;98023.59;5110824;28;20035;-78
2021/12/20 03:33:49;;;;;;;77.72;39.13;;;;;;;-4.28;100.00;98028.69;5110716;28;20408;-76
2021/12/20 03:36:15;;;;;;;76.35;40.15;;;;;;;-4.18;100.00;98042.50;5111003;28;20034;-77
2021/12/20 03:38:40;;;;;;;73.60;36.78;;;;;;;-4.11;100.00;98047.88;5093630;28;20115;-76
2021/12/20 03:41:06;;;;;;;76.82;39.65;;;;;;;-4.09;100.00;98045.81;5090447;28;20369;-75
2021/12/20 03:43:31;;;;;;;69.72;36.90;;;;;;;-4.04;100.00;98048.72;5089017;28;20093;-76
2021/12/20 03:45:58;;;;;;;65.70;37.50;;;;;;;-4.10;100.00;98047.66;5090636;28;20027;-75
2021/12/20 03:48:26;;;;;;;67.85;35.42;;;;;;;-4.19;100.00;98042.69;5093771;28;20119;-74
2021/12/20 03:50:52;;;;;;;70.13;37.97;;;;;;;-4.11;100.00;98045.19;5094348;28;20024;-76
2021/12/20 03:53:17;;;;;;;95.43;43.78;;;;;;;-4.15;100.00;98050.09;5094717;28;20071;-75
2021/12/20 03:55:42;;;;;;;86.10;42.08;;;;;;;-4.11;100.00;98043.34;5092894;28;20074;-76
2021/12/20 03:58:08;;;;;;;81.82;41.70;;;;;;;-4.15;100.00;98038.59;5095947;28;20035;-75
2021/12/20 04:00:33;;;;;;;90.93;45.30;;;;;;;-4.15;100.00;98049.28;5095401;28;20161;-76
2021/12/20 04:02:59;;;;;;;87.63;44.58;;;;;;;-4.26;100.00;98060.53;5113073;28;20037;-75
2021/12/20 04:05:24;;;;;;;85.22;42.33;;;;;;;-4.19;100.00;98067.53;5112861;28;20463;-76
2021/12/20 04:07:50;;;;;;;90.13;44.05;;;;;;;-4.20;100.00;98065.09;5114283;28;20031;-76
2021/12/20 04:10:16;;;;;;;81.40;42.88;;;;;;;-4.16;100.00;98077.00;5112929;28;20496;-76
2021/12/20 04:12:42;;;;;;;83.40;41.17;;;;;;;-4.13;100.00;98076.59;5114730;28;20023;-74
2021/12/20 04:15:08;;;;;;;76.90;39.58;;;;;;;-4.06;100.00;98075.59;5114421;28;20488;-74
2021/12/20 04:17:34;;;;;;;79.35;40.15;;;;;;;-4.09;100.00;98083.19;5114266;28;20080;-74
2021/12/20 04:20:00;;;;;;;78.28;40.47;;;;;;;-4.09;100.00;98085.84;5114375;28;20392;-75
2021/12/20 04:22:25;;;;;;;86.75;43.50;;;;;;;-4.20;100.00;98089.94;5115032;28;20039;-82
2021/12/20 04:24:50;;;;;;;92.50;45.03;;;;;;;-4.04;100.00;98088.78;5112987;28;20028;-76
2021/12/20 04:27:16;;;;;;;86.25;43.30;;;;;;;-4.04;100.00;98088.78;5113233;28;20043;-77
2021/12/20 04:29:41;;;;;;;95.90;45.67;;;;;;;-4.04;100.00;98086.09;5113777;28;20045;-76
2021/12/20 04:32:07;;;;;;;90.30;43.42;;;;;;;-4.11;100.00;98075.41;5114005;28;20023;-77
2021/12/20 04:34:32;;;;;;;106.13;48.00;;;;;;;-3.98;100.00;98079.97;5121019;28;20027;-75
2021/12/20 04:36:58;;;;;;;91.50;45.13;;;;;;;-3.90;100.00;98088.59;5116270;28;20152;-76
2021/12/20 04:39:29;;;;;;;81.03;43.13;;;;;;;-3.96;100.00;98086.75;5113010;28;20168;-75
2021/12/20 04:41:54;;;;;;;76.15;39.00;;;;;;;-4.01;100.00;98085.69;5113913;28;20020;-75
2021/12/20 04:44:19;;;;;;;73.88;38.85;;;;;;;-3.93;100.00;98091.69;5114014;28;20518;-76
2021/12/20 04:46:45;;;;;;;68.35;37.38;;;;;;;-3.85;100.00;98096.00;5112553;28;20016;-77
2021/12/20 04:49:10;;;;;;;75.25;40.13;;;;;;;-3.92;100.00;98088.00;5113892;28;20027;-74
2021/12/20 04:51:38;;;;;;;83.05;42.83;;;;;;;-3.79;100.00;98097.91;5114534;28;20111;-75
2021/12/20 04:54:04;;;;;;;77.45;41.65;;;;;;;-3.69;100.00;98095.66;5116815;28;20050;-77
2021/12/20 04:56:29;;;;;;;70.80;39.20;;;;;;;-3.86;100.00;98095.22;5113236;28;20032;-74
2021/12/20 04:58:55;;;;;;;79.75;39.10;;;;;;;-3.93;100.00;98098.88;5112842;28;20024;-75
2021/12/20 05:01:20;;;;;;;71.28;38.63;;;;;;;-4.04;100.00;98096.78;5116765;28;20024;-76
2021/12/20 05:03:46;;;;;;;68.88;35.83;;;;;;;-4.04;100.00;98113.59;5126717;28;20484;-76
2021/12/20 05:06:11;;;;;;;75.22;39.47;;;;;;;-4.05;100.00;98108.47;5119970;28;20468;-74
2021/12/20 05:08:46;;;;;;;76.68;38.40;;;;;;;-4.05;100.00;98113.81;5113679;27;20028;-75
2021/12/20 05:11:12;;;;;;;68.30;37.47;;;;;;;-4.14;100.00;98112.34;5113838;28;20110;-74
2021/12/20 05:13:37;;;;;;;69.70;35.67;;;;;;;-4.18;100.00;98111.91;5113580;28;20124;-74
2021/12/20 05:16:03;;;;;;;74.50;38.63;;;;;;;-4.24;100.00;98109.22;5113148;28;20357;-75
2021/12/20 05:18:28;;;;;;;73.93;38.83;;;;;;;-4.31;100.00;98106.50;5112546;28;20026;-74
2021/12/20 05:20:54;;;;;;;73.57;38.50;;;;;;;-4.15;100.00;98121.38;5113395;28;20027;-76
2021/12/20 05:23:20;;;;;;;80.05;38.20;;;;;;;-4.23;100.00;98124.22;5113857;28;20381;-75
2021/12/20 05:25:45;;;;;;;77.68;39.42;;;;;;;-4.23;100.00;98133.06;5113107;28;20106;-76
2021/12/20 05:28:11;;;;;;;74.80;38.75;;;;;;;-4.26;100.00;98124.59;5113477;28;20077;-77
2021/12/20 05:30:37;;;;;;;77.05;38.83;;;;;;;-4.14;100.00;98137.19;5113497;28;20144;-75
2021/12/20 05:33:03;;;;;;;75.38;37.95;;;;;;;-4.14;100.00;98136.38;5112002;28;20480;-75
2021/12/20 05:35:28;;;;;;;76.53;39.75;;;;;;;-4.17;100.00;98142.09;5113796;28;20085;-76
2021/12/20 05:37:54;;;;;;;81.47;40.08;;;;;;;-4.20;100.00;98145.16;5095779;28;20062;-76
2021/12/20 05:40:20;;;;;;;79.55;40.33;;;;;;;-4.26;100.00;98146.75;5113785;28;20019;-76
2021/12/20 05:42:46;;;;;;;73.95;37.25;;;;;;;-4.07;100.00;98145.25;5113811;28;20400;-75
2021/12/20 05:45:12;;;;;;;76.38;39.05;;;;;;;-4.07;100.00;98156.72;5112927;28;20035;-76
2021/12/20 05:47:38;;;;;;;74.43;38.45;;;;;;;-4.08;100.00;98159.59;5112163;28;20023;-76
2021/12/20 05:50:05;;;;;;;74.35;39.42;;;;;;;-4.22;100.00;98156.03;5116501;28;20106;-75
2021/12/20 05:52:31;;;;;;;78.45;40.47;;;;;;;-4.19;100.00;98168.16;5112786;28;20104;-76
2021/12/20 05:54:56;;;;;;;75.85;40.03;;;;;;;-4.21;100.00;98156.88;5111029;28;20447;-77
2021/12/20 05:57:22;;;;;;;81.20;40.92;;;;;;;-4.27;100.00;98163.00;5112678;28;20024;-76
2021/12/20 05:59:48;;;;;;;82.93;40.70;;;;;;;-4.29;100.00;98173.84;5111478;28;20027;-76
2021/12/20 06:02:13;;;;;;;82.28;43.33;;;;;;;-4.27;100.00;98173.66;5112513;28;20023;-76
2021/12/20 06:04:39;;;;;;;85.20;42.42;;;;;;;-4.36;100.00;98181.84;5112182;28;20461;-76
2021/12/20 06:07:04;;;;;;;75.20;42.25;;;;;;;-4.19;100.00;98169.00;5112933;28;20136;-76
2021/12/20 06:09:30;;;;;;;82.10;42.83;;;;;;;-4.26;100.00;98186.00;5112540;28;20376;-76
2021/12/20 06:11:59;;;;;;;80.43;40.97;;;;;;;-4.27;100.00;98190.50;5111577;28;20028;-77
2021/12/20 06:14:26;;;;;;;80.63;40.25;;;;;;;-4.30;100.00;98198.91;5112418;28;20072;-74
2021/12/20 06:16:51;;;;;;;80.75;42.10;;;;;;;-4.25;100.00;98201.81;5112266;28;20637;-74
2021/12/20 06:19:17;;;;;;;79.45;39.97;;;;;;;-4.24;100.00;98202.63;5112106;28;20031;-74
2021/12/20 06:21:42;;;;;;;76.45;40.15;;;;;;;-4.20;100.00;98207.41;5112294;28;20084;-77
2021/12/20 06:24:08;;;;;;;78.07;42.15;;;;;;;-4.01;100.00;98208.53;5116646;28;20384;-79
2021/12/20 06:26:33;;;;;;;84.65;42.78;;;;;;;-4.13;100.00;98200.25;5113038;28;20036;-78
2021/12/20 06:28:58;;;;;;;82.25;43.83;;;;;;;-4.15;100.00;98198.78;5112787;28;20068;-77
2021/12/20 06:31:24;;;;;;;94.45;46.55;;;;;;;-4.01;100.00;98212.00;5107878;28;20741;-81
2021/12/20 06:33:50;;;;;;;87.13;43.47;;;;;;;-4.04;100.00;98204.41;5109338;28;20375;-75
2021/12/20 06:36:18;;;;;;;82.85;43.70;;;;;;;-4.06;100.00;98200.28;5111355;28;20435;-79
2021/12/20 06:38:45;;;;;;;75.28;43.15;;;;;;;-3.91;100.00;98217.00;5102058;28;20019;-75
2021/12/20 06:41:11;;;;;;;80.57;42.38;;;;;;;-3.94;100.00;98225.41;5101120;28;20434;-75
2021/12/20 06:43:37;;;;;;;82.82;41.45;;;;;;;-3.96;100.00;98222.94;5109288;28;20036;-76
2021/12/20 06:46:02;;;;;;;82.20;42.40;;;;;;;-3.85;100.00;98221.56;5115239;28;20035;-75
2021/12/20 06:48:28;;;;;;;72.22;40.03;;;;;;;-3.92;100.00;98213.53;5111710;28;20023;-75
2021/12/20 06:50:53;;;;;;;78.57;41.65;;;;;;;-3.94;100.00;98207.53;5111459;28;20034;-80
2021/12/20 06:53:19;;;;;;;82.25;41.83;;;;;;;-3.85;100.00;98216.22;5108671;28;20031;-76
2021/12/20 06:55:44;;;;;;;86.65;43.10;;;;;;;-3.74;100.00;98223.69;5119367;28;20023;-75
2021/12/20 06:58:10;;;;;;;73.95;40.28;;;;;;;-3.61;100.00;98221.06;5116877;28;20019;-77
2021/12/20 07:00:36;;;;;;;77.85;39.33;;;;;;;-3.46;100.00;98235.13;5114748;28;20422;-75
2021/12/20 07:03:01;;;;;;;76.43;40.78;;;;;;;-3.30;100.00;98229.41;5111617;28;20485;-76
2021/12/20 07:05:27;;;;;;;80.43;40.42;;;;;;;-3.28;100.00;98238.06;5110884;28;20161;-75
2021/12/20 07:07:53;;;;;;;75.75;38.97;;;;;;;-3.29;100.00;98230.25;5110517;28;20376;-77
2021/12/20 07:10:18;;;;;;;82.97;41.97;;;;;;;-2.88;100.00;98233.63;5119430;28;20118;-77
2021/12/20 07:12:44;;;;;;;81.38;42.15;;;;;;;-2.42;100.00;98233.69;5111927;28;20544;-75
2021/12/20 07:15:12;;;;;;;70.07;38.15;;;;;;;-1.92;100.00;98231.34;5111610;28;20438;-75
2021/12/20 07:17:38;;;;;;;64.18;33.97;;;;;;;-1.46;100.00;98240.09;5111388;28;20051;-77
2021/12/20 07:20:04;;;;;;;63.63;34.63;;;;;;;-1.20;100.00;98245.38;5111805;28;20027;-78
2021/12/20 07:22:30;;;;;;;59.85;33.92;;;;;;;-0.97;100.00;98241.34;5113775;28;20019;-76
2021/12/20 07:24:55;;;;;;;63.85;35.67;;;;;;;-0.72;100.00;98250.28;5106474;28;20032;-77
2021/12/20 07:27:21;;;;;;;66.25;34.20;;;;;;;-0.48;100.00;98254.84;5107498;28;20024;-75
2021/12/20 07:29:46;;;;;;;68.90;33.80;;;;;;;-0.43;100.00;98257.69;5095094;28;20043;-75
2021/12/20 07:32:12;;;;;;;65.05;34.03;;;;;;;-0.85;100.00;98255.72;5105655;28;20054;-76
2021/12/20 07:34:38;;;;;;;65.05;32.05;;;;;;;-1.43;100.00;98268.34;5105468;28;20035;-86
2021/12/20 07:37:06;;;;;;;59.40;34.28;;;;;;;-1.68;100.00;98269.03;5108076;28;20040;-83
2021/12/20 07:39:32;;;;;;;62.95;33.22;;;;;;;-1.61;100.00;98269.03;5109793;28;20024;-83
2021/12/20 07:41:57;;;;;;;66.15;36.22;;;;;;;-1.91;100.00;98255.25;5110365;28;20438;-84
2021/12/20 07:44:23;;;;;;;73.68;38.90;;;;;;;-1.81;100.00;98252.16;5109697;28;20027;-81
2021/12/20 07:46:49;;;;;;;77.03;38.78;;;;;;;-1.86;100.00;98254.66;5107845;28;20027;-84
2021/12/20 07:49:14;;;;;;;82.25;42.20;;;;;;;-1.97;100.00;98266.81;5096022;28;20032;-76
2021/12/20 07:51:40;;;;;;;83.25;41.92;;;;;;;-2.13;100.00;98269.91;5094638;28;20051;-76
2021/12/20 07:54:06;;;;;;;93.75;42.53;;;;;;;-2.10;100.00;98255.31;5093017;28;20088;-74
2021/12/20 07:56:31;;;;;;;87.53;43.88;;;;;;;-2.19;100.00;98270.75;5094412;28;20032;-79
2021/12/20 07:58:56;;;;;;;87.72;44.45;;;;;;;-2.24;100.00;98263.34;5094491;28;20481;-76
2021/12/20 08:01:22;;;;;;;85.20;42.00;;;;;;;-2.22;100.00;98269.31;5094449;28;20031;-75
2021/12/20 08:03:48;;;;;;;94.70;43.55;;;;;;;-2.29;100.00;98276.50;5094252;28;20031;-76
2021/12/20 08:06:13;;;;;;;95.18;44.42;;;;;;;-2.64;100.00;98274.22;5094495;28;20023;-76
2021/12/20 08:08:40;;;;;;;91.90;41.67;;;;;;;-2.55;100.00;98276.50;5094262;28;20111;-79
2021/12/20 08:11:06;;;;;;;103.97;44.70;;;;;;;-2.70;100.00;98273.19;5093961;28;20031;-78
2021/12/20 08:13:32;;;;;;;107.75;46.00;;;;;;;-2.67;100.00;98277.31;5093732;28;20036;-75
2021/12/20 08:15:58;;;;;;;114.13;48.10;;;;;;;-2.70;100.00;98283.91;5094126;28;20051;-75
2021/12/20 08:18:23;;;;;;;102.72;46.38;;;;;;;-2.60;100.00;98275.47;5093832;28;20024;-76
2021/12/20 08:20:49;;;;;;;111.50;46.47;;;;;;;-2.62;100.00;98259.59;5093685;28;20153;-75
2021/12/20 08:23:14;;;;;;;103.95;47.10;;;;;;;-2.41;100.00;98263.97;5094671;28;20028;-73
2021/12/20 08:25:39;;;;;;;96.07;43.22;;;;;;;-2.32;100.00;98270.75;5092741;28;20020;-76
2021/12/20 08:28:06;;;;;;;98.20;44.13;;;;;;;-2.13;100.00;98263.75;5094443;28;20493;-76
2021/12/20 08:30:32;;;;;;;101.80;46.72;;;;;;;-1.81;100.00;98268.22;5094411;28;20020;-76
2021/12/20 08:32:58;;;;;;;98.20;44.55;;;;;;;-1.75;100.00;98273.56;5093736;28;20039;-77
2021/12/20 08:35:23;;;;;;;92.30;43.92;;;;;;;-1.39;100.00;98277.63;5095893;28;20047;-75
2021/12/20 08:37:50;;;;;;;86.18;40.83;;;;;;;-1.50;100.00;98271.03;5093627;28;20016;-75
2021/12/20 08:40:16;;;;;;;100.13;44.60;;;;;;;-1.39;100.00;98278.44;5093581;28;20025;-78
2021/12/20 08:42:43;;;;;;;92.80;44.00;;;;;;;-1.36;100.00;98275.34;5095211;28;20435;-75
2021/12/20 08:45:10;;;;;;;92.60;42.40;;;;;;;-1.31;100.00;98282.75;5104786;28;20028;-77
2021/12/20 08:47:36;;;;;;;96.05;42.75;;;;;;;-1.30;100.00;98266.44;5112704;28;20096;-76
2021/12/20 08:50:07;;;;;;;91.32;44.58;;;;;;;-1.23;100.00;98278.00;5115259;28;20020;-76
2021/12/20 08:52:33;;;;;;;93.28;43.95;;;;;;;-0.90;100.00;98274.31;5112859;28;20082;-77
2021/12/20 08:54:59;;;;;;;97.93;42.85;;;;;;;-0.96;100.00;98278.69;5096592;28;20119;-75
2021/12/20 08:57:24;;;;;;;98.13;44.53;;;;;;;-1.27;100.00;98284.81;5099333;28;20059;-73
2021/12/20 08:59:50;;;;;;;100.75;44.80;;;;;;;-1.12;100.00;98290.72;5093259;28;20545;-76
2021/12/20 09:02:15;;;;;;;93.28;43.42;;;;;;;-1.13;100.00;98283.69;5094132;28;20425;-75
2021/12/20 09:04:41;;;;;;;99.40;48.13;;;;;;;-1.26;100.00;98294.50;5092305;28;20381;-78
2021/12/20 09:07:10;;;;;;;97.22;43.40;;;;;;;-0.97;100.00;98289.66;5093909;28;20016;-77
2021/12/20 09:09:39;;;;;;;91.47;43.63;;;;;;;-0.21;100.00;98288.53;5103712;28;20027;-77
2021/12/20 09:12:06;;;;;;;81.55;43.63;;;;;;;0.06;100.00;98294.53;5112453;28;20035;-76
2021/12/20 09:14:33;;;;;;;85.82;41.30;;;;;;;0.97;100.00;98300.81;5112641;28;20059;-77
2021/12/20 09:17:00;;;;;;;79.28;42.70;;;;;;;1.56;100.00;98312.69;5111657;28;20019;-76
2021/12/20 09:19:26;;;;;;;77.65;38.90;;;;;;;1.68;100.00;98310.84;5113142;28;20111;-76
2021/12/20 09:21:52;;;;;;;78.40;39.50;;;;;;;2.06;99.54;98310.47;5113726;28;20152;-78
2021/12/20 09:24:17;;;;;;;73.32;37.97;;;;;;;2.33;99.27;98308.97;5113584;28;20192;-77
2021/12/20 09:26:43;;;;;;;76.35;38.70;;;;;;;3.01;94.96;98309.16;5113634;28;20068;-76
2021/12/20 09:29:08;;;;;;;72.18;36.67;;;;;;;3.73;87.89;98312.19;5114975;28;20035;-77
2021/12/20 09:31:33;;;;;;;64.07;34.33;;;;;;;4.67;83.50;98315.94;5115266;28;20057;-76
2021/12/20 09:33:59;;;;;;;60.70;33.78;;;;;;;5.37;79.10;98306.03;5112635;28;20034;-77
2021/12/20 09:36:29;;;;;;;65.95;35.63;;;;;;;6.09;74.45;98311.19;5115598;28;20039;-79
2021/12/20 09:38:59;;;;;;;63.38;34.45;;;;;;;5.82;74.26;98313.88;5115713;28;20392;-79
2021/12/20 09:44:06;;;;;;;63.53;35.72;;;;;;;6.99;71.22;98296.59;5115260;28;20047;-75
2021/12/20 09:46:32;;;;;;;59.63;34.35;;;;;;;6.63;70.05;98302.91;5113502;28;20034;-78
2021/12/20 09:48:58;;;;;;;57.67;34.05;;;;;;;6.56;69.90;98300.41;5112858;28;20092;-78
2021/12/20 09:51:25;;;;;;;57.35;35.47;;;;;;;6.64;70.58;98299.13;5113631;28;20042;-77
2021/12/20 09:53:51;;;;;;;58.08;35.38;;;;;;;6.38;74.17;98295.41;5112387;28;20043;-80
2021/12/20 09:56:19;;;;;;;54.67;33.50;;;;;;;7.17;69.47;98288.03;5113428;28;20083;-78
2021/12/20 09:58:47;;;;;;;52.42;32.25;;;;;;;7.61;69.69;98295.81;5113363;27;20027;-77
2021/12/20 10:01:13;;;;;;;52.47;33.70;;;;;;;8.04;67.17;98289.91;5112917;28;20016;-79
2021/12/20 10:03:40;;;;;;;54.22;32.97;;;;;;;7.53;68.34;98283.53;5112277;28;20127;-76
2021/12/20 10:06:05;;;;;;;50.97;32.00;;;;;;;8.20;65.37;98279.84;5112575;28;20035;-77
2021/12/20 10:08:33;;;;;;;52.30;34.42;;;;;;;9.03;61.91;98290.13;5112944;28;20028;-76
2021/12/20 10:11:05;;;;;;;51.13;33.15;;;;;;;8.79;62.37;98289.09;5113472;28;20023;-79
2021/12/20 10:13:36;;;;;;;56.10;33.97;;;;;;;9.18;61.04;98274.81;5113586;28;20037;-80
2021/12/20 10:16:06;;;;;;;50.30;32.53;;;;;;;8.36;66.63;98273.31;5113115;28;20023;-81
2021/12/20 10:18:34;;;;;;;50.90;31.83;;;;;;;7.42;68.62;98279.94;5114408;28;20140;-78
2021/12/20 10:21:01;;;;;;;54.55;33.60;;;;;;;6.89;70.03;98281.06;5115537;28;20051;-80
2021/12/20 10:23:29;;;;;;;53.72;34.53;;;;;;;7.12;69.08;98273.56;5115900;28;20031;-84
2021/12/20 10:26:04;;;;;;;48.85;32.67;;;;;;;6.86;69.56;98267.19;5117644;28;20020;-83
2021/12/20 10:28:35;;;;;;;48.87;32.50;;;;;;;8.03;67.08;98274.63;5117003;28;20380;-83
2021/12/20 10:31:05;;;;;;;55.25;34.60;;;;;;;7.28;68.61;98267.09;5115172;28;20035;-83
2021/12/20 10:33:31;;;;;;;54.47;33.53;;;;;;;8.17;67.57;98269.47;5115164;28;20024;-81
2021/12/20 10:35:59;;;;;;;55.90;33.22;;;;;;;8.15;66.74;98261.56;5113048;28;20057;-79
2021/12/20 10:38:26;;;;;;;54.72;33.65;;;;;;;7.75;67.43;98266.97;5112339;28;20080;-80
2021/12/20 10:40:54;;;;;;;58.90;33.88;;;;;;;9.05;64.29;98274.28;5117115;28;20020;-84
2021/12/20 10:43:23;;;;;;;50.13;31.85;;;;;;;9.36;61.72;98280.47;5114966;28;20476;-80
2021/12/20 10:45:53;;;;;;;52.83;34.10;;;;;;;8.88;63.18;98275.69;5119094;28;20019;-77
2021/12/20 10:48:19;;;;;;;53.83;35.38;;;;;;;8.47;65.10;98262.13;5114491;28;20035;-77
2021/12/20 10:50:45;;;;;;;58.20;36.08;;;;;;;8.72;64.12;98274.91;5112341;28;20027;-80
2021/12/20 10:53:22;;;;;;;52.70;34.00;;;;;;;8.36;64.99;98267.88;5112323;28;20048;-77
2021/12/20 10:55:52;;;;;;;58.47;36.33;;;;;;;8.14;65.51;98259.94;5111388;28;20041;-79
2021/12/20 10:58:18;;;;;;;54.20;34.20;;;;;;;7.57;67.22;98256.59;5111861;28;20028;-78
2021/12/20 11:00:45;;;;;;;59.38;35.90;;;;;;;7.51;68.76;98250.31;5112352;28;20519;-75
2021/12/20 11:03:29;;;;;;;63.22;37.53;;;;;;;6.38;73.57;98252.75;5113899;28;20533;-79
2021/12/20 11:11:23;;;;;;;59.13;37.00;;;;;;;6.84;71.15;98261.19;5112830;28;20046;-80
2021/12/20 11:13:49;;;;;;;61.40;38.35;;;;;;;6.55;72.70;98249.06;5116064;28;20452;-78
2021/12/20 11:16:28;;;;;;;65.32;35.97;;;;;;;6.46;73.68;98240.56;5113193;28;20089;-85
2021/12/20 11:19:06;;;;;;;64.00;37.95;;;;;;;6.25;74.59;98236.91;5113870;28;20024;-75
2021/12/20 11:21:32;;;;;;;62.17;38.45;;;;;;;5.50;77.14;98238.91;5114848;28;20048;-75
2021/12/20 11:23:59;;;;;;;74.18;41.10;;;;;;;5.67;78.56;98234.22;5112998;28;20130;-79
2021/12/20 11:26:27;;;;;;;72.53;40.60;;;;;;;4.69;81.69;98229.81;5115001;28;20271;-79
2021/12/20 11:28:54;;;;;;;65.18;38.83;;;;;;;5.42;79.63;98236.66;5113512;28;20024;-82
2021/12/20 11:31:19;;;;;;;71.95;39.33;;;;;;;4.62;85.16;98231.88;5113527;28;20066;-78